sensor_id;sensor_type;location;lat;lon;timestamp;P1;durP1;ratioP1;P2;durP2;ratioP2
16310;SDS011;8264;48.510;8.872;2022-07-24T00:02:16;8.97;;;8.07;;
16310;SDS011;8264;48.510;8.872;2022-07-24T00:04:43;9.13;;;8.23;;
16310;SDS011;8264;48.510;8.872;2022-07-24T00:07:10;8.60;;;7.43;;
16310;SDS011;8264;48.510;8.872;2022-07-24T00:09:36;9.30;;;8.30;;
16310;SDS011;8264;48.510;8.872;2022-07-24T00:12:03;9.80;;;8.20;;
16310;SDS011;8264;48.510;8.872;2022-07-24T00:14:31;9.60;;;8.80;;
16310;SDS011;8264;48.510;8.872;2022-07-24T00:16:59;10.20;;;8.53;;
16310;SDS011;8264;48.510;8.872;2022-07-24T00:19:25;9.27;;;8.43;;
16310;SDS011;8264;48.510;8.872;2022-07-24T00:21:52;9.33;;;8.37;;
16310;SDS011;8264;48.510;8.872;2022-07-24T00:24:19;11.30;;;7.93;;
16310;SDS011;8264;48.510;8.872;2022-07-24T00:26:46;8.87;;;7.83;;
16310;SDS011;8264;48.510;8.872;2022-07-24T00:29:13;9.07;;;8.20;;
16310;SDS011;8264;48.510;8.872;2022-07-24T00:31:39;10.10;;;7.87;;
16310;SDS011;8264;48.510;8.872;2022-07-24T00:34:09;10.23;;;9.00;;
16310;SDS011;8264;48.510;8.872;2022-07-24T00:36:41;9.10;;;7.87;;
16310;SDS011;8264;48.510;8.872;2022-07-24T00:39:09;9.33;;;8.53;;
16310;SDS011;8264;48.510;8.872;2022-07-24T00:41:37;9.63;;;8.73;;
16310;SDS011;8264;48.510;8.872;2022-07-24T00:44:07;9.07;;;8.17;;
16310;SDS011;8264;48.510;8.872;2022-07-24T00:46:36;9.87;;;8.07;;
16310;SDS011;8264;48.510;8.872;2022-07-24T00:49:05;9.33;;;8.33;;
16310;SDS011;8264;48.510;8.872;2022-07-24T00:51:34;9.53;;;8.57;;
16310;SDS011;8264;48.510;8.872;2022-07-24T00:54:02;9.00;;;8.20;;
16310;SDS011;8264;48.510;8.872;2022-07-24T00:56:31;9.17;;;8.20;;
16310;SDS011;8264;48.510;8.872;2022-07-24T00:58:58;8.97;;;8.17;;
16310;SDS011;8264;48.510;8.872;2022-07-24T01:01:26;8.47;;;7.43;;
16310;SDS011;8264;48.510;8.872;2022-07-24T01:03:53;9.03;;;8.13;;
16310;SDS011;8264;48.510;8.872;2022-07-24T01:06:20;9.40;;;8.50;;
16310;SDS011;8264;48.510;8.872;2022-07-24T01:08:48;10.77;;;8.13;;
16310;SDS011;8264;48.510;8.872;2022-07-24T01:11:15;8.90;;;8.10;;
16310;SDS011;8264;48.510;8.872;2022-07-24T01:13:42;9.83;;;8.93;;
16310;SDS011;8264;48.510;8.872;2022-07-24T01:16:09;8.73;;;7.93;;
16310;SDS011;8264;48.510;8.872;2022-07-24T01:18:36;8.70;;;7.90;;
16310;SDS011;8264;48.510;8.872;2022-07-24T01:21:05;9.70;;;8.17;;
16310;SDS011;8264;48.510;8.872;2022-07-24T01:23:35;9.73;;;8.77;;
16310;SDS011;8264;48.510;8.872;2022-07-24T01:26:02;9.50;;;8.50;;
16310;SDS011;8264;48.510;8.872;2022-07-24T01:28:32;9.90;;;8.90;;
16310;SDS011;8264;48.510;8.872;2022-07-24T01:31:00;8.93;;;8.13;;
16310;SDS011;8264;48.510;8.872;2022-07-24T01:33:26;10.00;;;9.00;;
16310;SDS011;8264;48.510;8.872;2022-07-24T01:35:53;10.00;;;8.53;;
16310;SDS011;8264;48.510;8.872;2022-07-24T01:38:21;9.40;;;8.60;;
16310;SDS011;8264;48.510;8.872;2022-07-24T01:40:48;9.70;;;8.70;;
16310;SDS011;8264;48.510;8.872;2022-07-24T01:43:14;9.73;;;8.73;;
16310;SDS011;8264;48.510;8.872;2022-07-24T01:45:41;11.60;;;8.77;;
16310;SDS011;8264;48.510;8.872;2022-07-24T01:48:08;10.77;;;8.90;;
16310;SDS011;8264;48.510;8.872;2022-07-24T01:50:37;10.30;;;8.63;;
16310;SDS011;8264;48.510;8.872;2022-07-24T01:53:03;9.83;;;8.90;;
16310;SDS011;8264;48.510;8.872;2022-07-24T01:55:32;8.70;;;8.00;;
16310;SDS011;8264;48.510;8.872;2022-07-24T01:57:58;10.10;;;9.10;;
16310;SDS011;8264;48.510;8.872;2022-07-24T02:00:25;10.10;;;9.10;;
16310;SDS011;8264;48.510;8.872;2022-07-24T02:02:51;9.37;;;8.47;;
16310;SDS011;8264;48.510;8.872;2022-07-24T02:05:19;9.80;;;8.80;;
16310;SDS011;8264;48.510;8.872;2022-07-24T02:07:53;9.77;;;8.97;;
16310;SDS011;8264;48.510;8.872;2022-07-24T02:10:21;9.17;;;8.23;;
16310;SDS011;8264;48.510;8.872;2022-07-24T02:12:49;10.67;;;9.17;;
16310;SDS011;8264;48.510;8.872;2022-07-24T02:15:16;9.80;;;8.90;;
16310;SDS011;8264;48.510;8.872;2022-07-24T02:17:44;9.63;;;8.63;;
16310;SDS011;8264;48.510;8.872;2022-07-24T02:20:12;9.37;;;8.47;;
16310;SDS011;8264;48.510;8.872;2022-07-24T02:22:39;9.73;;;8.70;;
16310;SDS011;8264;48.510;8.872;2022-07-24T02:25:06;9.80;;;8.90;;
16310;SDS011;8264;48.510;8.872;2022-07-24T02:27:35;9.67;;;8.67;;
16310;SDS011;8264;48.510;8.872;2022-07-24T02:30:04;9.40;;;8.50;;
16310;SDS011;8264;48.510;8.872;2022-07-24T02:32:32;9.47;;;8.57;;
16310;SDS011;8264;48.510;8.872;2022-07-24T02:34:59;10.27;;;9.17;;
16310;SDS011;8264;48.510;8.872;2022-07-24T02:37:26;10.07;;;9.07;;
16310;SDS011;8264;48.510;8.872;2022-07-24T02:39:53;11.90;;;9.30;;
16310;SDS011;8264;48.510;8.872;2022-07-24T02:42:20;9.67;;;8.87;;
16310;SDS011;8264;48.510;8.872;2022-07-24T02:44:46;10.07;;;9.07;;
16310;SDS011;8264;48.510;8.872;2022-07-24T02:47:16;9.93;;;8.93;;
16310;SDS011;8264;48.510;8.872;2022-07-24T02:49:42;10.10;;;9.20;;
16310;SDS011;8264;48.510;8.872;2022-07-24T02:52:09;10.10;;;9.20;;
16310;SDS011;8264;48.510;8.872;2022-07-24T02:54:36;10.07;;;9.17;;
16310;SDS011;8264;48.510;8.872;2022-07-24T02:57:07;10.40;;;9.40;;
16310;SDS011;8264;48.510;8.872;2022-07-24T02:59:33;11.50;;;9.80;;
16310;SDS011;8264;48.510;8.872;2022-07-24T03:02:00;10.07;;;9.10;;
16310;SDS011;8264;48.510;8.872;2022-07-24T03:04:28;10.07;;;9.20;;
16310;SDS011;8264;48.510;8.872;2022-07-24T03:06:55;10.57;;;9.57;;
16310;SDS011;8264;48.510;8.872;2022-07-24T03:09:21;10.77;;;9.67;;
16310;SDS011;8264;48.510;8.872;2022-07-24T03:11:48;12.13;;;9.93;;
16310;SDS011;8264;48.510;8.872;2022-07-24T03:14:15;11.43;;;10.33;;
16310;SDS011;8264;48.510;8.872;2022-07-24T03:16:41;11.20;;;10.10;;
16310;SDS011;8264;48.510;8.872;2022-07-24T03:19:08;10.93;;;9.93;;
16310;SDS011;8264;48.510;8.872;2022-07-24T03:21:36;9.90;;;9.10;;
16310;SDS011;8264;48.510;8.872;2022-07-24T03:24:03;10.73;;;9.70;;
16310;SDS011;8264;48.510;8.872;2022-07-24T03:26:35;10.70;;;9.70;;
16310;SDS011;8264;48.510;8.872;2022-07-24T03:29:02;10.13;;;9.13;;
16310;SDS011;8264;48.510;8.872;2022-07-24T03:31:28;10.33;;;9.27;;
16310;SDS011;8264;48.510;8.872;2022-07-24T03:33:59;10.73;;;9.77;;
16310;SDS011;8264;48.510;8.872;2022-07-24T03:36:26;11.40;;;10.37;;
16310;SDS011;8264;48.510;8.872;2022-07-24T03:38:54;10.77;;;9.67;;
16310;SDS011;8264;48.510;8.872;2022-07-24T03:41:21;11.00;;;10.00;;
16310;SDS011;8264;48.510;8.872;2022-07-24T03:43:49;10.70;;;9.70;;
16310;SDS011;8264;48.510;8.872;2022-07-24T03:46:16;9.70;;;8.70;;
16310;SDS011;8264;48.510;8.872;2022-07-24T03:48:43;10.53;;;9.23;;
16310;SDS011;8264;48.510;8.872;2022-07-24T03:51:09;9.87;;;9.03;;
16310;SDS011;8264;48.510;8.872;2022-07-24T03:53:38;9.83;;;8.93;;
16310;SDS011;8264;48.510;8.872;2022-07-24T03:56:07;10.53;;;9.43;;
16310;SDS011;8264;48.510;8.872;2022-07-24T03:58:35;12.80;;;9.63;;
16310;SDS011;8264;48.510;8.872;2022-07-24T04:01:02;10.90;;;9.87;;
16310;SDS011;8264;48.510;8.872;2022-07-24T04:03:29;10.93;;;9.93;;
16310;SDS011;8264;48.510;8.872;2022-07-24T04:05:55;10.70;;;9.80;;
16310;SDS011;8264;48.510;8.872;2022-07-24T04:08:22;11.40;;;10.40;;
16310;SDS011;8264;48.510;8.872;2022-07-24T04:10:48;10.90;;;9.67;;
16310;SDS011;8264;48.510;8.872;2022-07-24T04:13:22;9.97;;;9.07;;
16310;SDS011;8264;48.510;8.872;2022-07-24T04:15:49;11.13;;;10.03;;
16310;SDS011;8264;48.510;8.872;2022-07-24T04:18:16;10.20;;;9.17;;
16310;SDS011;8264;48.510;8.872;2022-07-24T04:20:45;10.60;;;9.50;;
16310;SDS011;8264;48.510;8.872;2022-07-24T04:23:11;9.93;;;8.93;;
16310;SDS011;8264;48.510;8.872;2022-07-24T04:25:38;10.67;;;9.43;;
16310;SDS011;8264;48.510;8.872;2022-07-24T04:28:05;10.63;;;9.67;;
16310;SDS011;8264;48.510;8.872;2022-07-24T04:30:33;10.33;;;9.40;;
16310;SDS011;8264;48.510;8.872;2022-07-24T04:33:00;11.73;;;9.90;;
16310;SDS011;8264;48.510;8.872;2022-07-24T04:35:26;11.43;;;10.23;;
16310;SDS011;8264;48.510;8.872;2022-07-24T04:37:53;12.53;;;8.97;;
16310;SDS011;8264;48.510;8.872;2022-07-24T04:40:19;10.80;;;9.70;;
16310;SDS011;8264;48.510;8.872;2022-07-24T04:42:46;10.20;;;9.30;;
16310;SDS011;8264;48.510;8.872;2022-07-24T04:45:13;9.83;;;9.03;;
16310;SDS011;8264;48.510;8.872;2022-07-24T04:47:41;11.27;;;9.30;;
16310;SDS011;8264;48.510;8.872;2022-07-24T04:50:08;10.00;;;9.10;;
16310;SDS011;8264;48.510;8.872;2022-07-24T04:52:36;9.30;;;8.40;;
16310;SDS011;8264;48.510;8.872;2022-07-24T04:55:03;9.43;;;8.53;;
16310;SDS011;8264;48.510;8.872;2022-07-24T04:57:30;9.73;;;8.93;;
16310;SDS011;8264;48.510;8.872;2022-07-24T04:59:57;9.70;;;8.87;;
16310;SDS011;8264;48.510;8.872;2022-07-24T05:02:23;11.03;;;9.20;;
16310;SDS011;8264;48.510;8.872;2022-07-24T05:04:51;10.63;;;9.63;;
16310;SDS011;8264;48.510;8.872;2022-07-24T05:07:18;9.80;;;8.90;;
16310;SDS011;8264;48.510;8.872;2022-07-24T05:09:44;10.03;;;9.07;;
16310;SDS011;8264;48.510;8.872;2022-07-24T05:12:11;10.63;;;9.53;;
16310;SDS011;8264;48.510;8.872;2022-07-24T05:14:37;9.73;;;8.83;;
16310;SDS011;8264;48.510;8.872;2022-07-24T05:17:03;10.37;;;9.07;;
16310;SDS011;8264;48.510;8.872;2022-07-24T05:19:30;10.30;;;9.30;;
16310;SDS011;8264;48.510;8.872;2022-07-24T05:21:58;9.37;;;8.57;;
16310;SDS011;8264;48.510;8.872;2022-07-24T05:24:24;10.23;;;9.23;;
16310;SDS011;8264;48.510;8.872;2022-07-24T05:26:51;9.17;;;8.37;;
16310;SDS011;8264;48.510;8.872;2022-07-24T05:29:17;9.17;;;8.33;;
16310;SDS011;8264;48.510;8.872;2022-07-24T05:31:44;9.60;;;8.60;;
16310;SDS011;8264;48.510;8.872;2022-07-24T05:34:11;8.80;;;8.00;;
16310;SDS011;8264;48.510;8.872;2022-07-24T05:36:37;9.57;;;8.67;;
16310;SDS011;8264;48.510;8.872;2022-07-24T05:39:05;9.33;;;8.43;;
16310;SDS011;8264;48.510;8.872;2022-07-24T05:41:32;9.83;;;7.97;;
16310;SDS011;8264;48.510;8.872;2022-07-24T05:43:58;8.50;;;7.80;;
16310;SDS011;8264;48.510;8.872;2022-07-24T05:46:25;9.17;;;8.37;;
16310;SDS011;8264;48.510;8.872;2022-07-24T05:48:51;10.30;;;8.27;;
16310;SDS011;8264;48.510;8.872;2022-07-24T05:51:18;10.20;;;8.80;;
16310;SDS011;8264;48.510;8.872;2022-07-24T05:53:44;9.73;;;8.83;;
16310;SDS011;8264;48.510;8.872;2022-07-24T05:56:12;9.73;;;8.73;;
16310;SDS011;8264;48.510;8.872;2022-07-24T05:58:38;9.20;;;8.43;;
16310;SDS011;8264;48.510;8.872;2022-07-24T06:01:05;11.10;;;10.10;;
16310;SDS011;8264;48.510;8.872;2022-07-24T06:03:31;10.40;;;9.40;;
16310;SDS011;8264;48.510;8.872;2022-07-24T06:05:58;9.50;;;8.33;;
16310;SDS011;8264;48.510;8.872;2022-07-24T06:08:24;10.40;;;9.40;;
16310;SDS011;8264;48.510;8.872;2022-07-24T06:10:51;10.43;;;9.43;;
16310;SDS011;8264;48.510;8.872;2022-07-24T06:13:19;10.33;;;9.40;;
16310;SDS011;8264;48.510;8.872;2022-07-24T06:15:45;9.53;;;8.73;;
16310;SDS011;8264;48.510;8.872;2022-07-24T06:18:12;9.87;;;8.93;;
16310;SDS011;8264;48.510;8.872;2022-07-24T06:20:38;9.93;;;8.93;;
16310;SDS011;8264;48.510;8.872;2022-07-24T06:23:04;10.17;;;9.27;;
16310;SDS011;8264;48.510;8.872;2022-07-24T06:25:31;9.47;;;8.57;;
16310;SDS011;8264;48.510;8.872;2022-07-24T06:27:57;9.43;;;8.53;;
16310;SDS011;8264;48.510;8.872;2022-07-24T06:30:26;10.13;;;9.13;;
16310;SDS011;8264;48.510;8.872;2022-07-24T06:32:54;9.10;;;8.30;;
16310;SDS011;8264;48.510;8.872;2022-07-24T06:35:22;10.37;;;8.77;;
16310;SDS011;8264;48.510;8.872;2022-07-24T06:37:50;10.07;;;8.60;;
16310;SDS011;8264;48.510;8.872;2022-07-24T06:40:16;9.07;;;7.73;;
16310;SDS011;8264;48.510;8.872;2022-07-24T06:42:43;11.27;;;7.60;;
16310;SDS011;8264;48.510;8.872;2022-07-24T06:45:10;11.23;;;7.47;;
16310;SDS011;8264;48.510;8.872;2022-07-24T06:47:38;8.40;;;7.33;;
16310;SDS011;8264;48.510;8.872;2022-07-24T06:50:05;7.67;;;7.03;;
16310;SDS011;8264;48.510;8.872;2022-07-24T06:52:32;9.23;;;8.33;;
16310;SDS011;8264;48.510;8.872;2022-07-24T06:54:58;7.93;;;7.33;;
16310;SDS011;8264;48.510;8.872;2022-07-24T06:57:25;7.80;;;7.10;;
16310;SDS011;8264;48.510;8.872;2022-07-24T06:59:51;7.93;;;7.23;;
16310;SDS011;8264;48.510;8.872;2022-07-24T07:02:18;8.40;;;7.60;;
16310;SDS011;8264;48.510;8.872;2022-07-24T07:04:46;8.30;;;7.50;;
16310;SDS011;8264;48.510;8.872;2022-07-24T07:07:13;8.40;;;7.50;;
16310;SDS011;8264;48.510;8.872;2022-07-24T07:09:40;7.87;;;7.13;;
16310;SDS011;8264;48.510;8.872;2022-07-24T07:12:07;8.47;;;7.27;;
16310;SDS011;8264;48.510;8.872;2022-07-24T07:14:34;8.57;;;7.77;;
16310;SDS011;8264;48.510;8.872;2022-07-24T07:17:00;8.83;;;6.63;;
16310;SDS011;8264;48.510;8.872;2022-07-24T07:19:27;8.27;;;7.37;;
16310;SDS011;8264;48.510;8.872;2022-07-24T07:21:55;8.83;;;7.27;;
16310;SDS011;8264;48.510;8.872;2022-07-24T07:24:23;8.07;;;7.37;;
16310;SDS011;8264;48.510;8.872;2022-07-24T07:26:49;7.37;;;6.67;;
16310;SDS011;8264;48.510;8.872;2022-07-24T07:29:16;8.10;;;7.30;;
16310;SDS011;8264;48.510;8.872;2022-07-24T07:31:42;8.17;;;7.37;;
16310;SDS011;8264;48.510;8.872;2022-07-24T07:34:09;9.50;;;7.63;;
16310;SDS011;8264;48.510;8.872;2022-07-24T07:36:35;7.73;;;6.90;;
16310;SDS011;8264;48.510;8.872;2022-07-24T07:39:03;7.27;;;6.67;;
16310;SDS011;8264;48.510;8.872;2022-07-24T07:41:30;7.13;;;6.43;;
16310;SDS011;8264;48.510;8.872;2022-07-24T07:43:56;9.20;;;7.07;;
16310;SDS011;8264;48.510;8.872;2022-07-24T07:46:23;7.80;;;7.10;;
16310;SDS011;8264;48.510;8.872;2022-07-24T07:48:50;7.03;;;6.43;;
16310;SDS011;8264;48.510;8.872;2022-07-24T07:51:16;8.90;;;6.70;;
16310;SDS011;8264;48.510;8.872;2022-07-24T07:53:43;6.90;;;6.20;;
16310;SDS011;8264;48.510;8.872;2022-07-24T07:56:11;6.87;;;6.27;;
16310;SDS011;8264;48.510;8.872;2022-07-24T07:58:37;6.83;;;6.13;;
16310;SDS011;8264;48.510;8.872;2022-07-24T08:01:04;6.87;;;6.17;;
16310;SDS011;8264;48.510;8.872;2022-07-24T08:03:30;8.63;;;6.27;;
16310;SDS011;8264;48.510;8.872;2022-07-24T08:05:57;6.17;;;5.60;;
16310;SDS011;8264;48.510;8.872;2022-07-24T08:08:23;6.70;;;5.90;;
16310;SDS011;8264;48.510;8.872;2022-07-24T08:10:50;6.87;;;6.17;;
16310;SDS011;8264;48.510;8.872;2022-07-24T08:13:18;6.27;;;5.73;;
16310;SDS011;8264;48.510;8.872;2022-07-24T08:15:44;6.30;;;5.70;;
16310;SDS011;8264;48.510;8.872;2022-07-24T08:18:11;6.47;;;5.80;;
16310;SDS011;8264;48.510;8.872;2022-07-24T08:20:37;6.00;;;5.23;;
16310;SDS011;8264;48.510;8.872;2022-07-24T08:23:04;6.40;;;5.00;;
16310;SDS011;8264;48.510;8.872;2022-07-24T08:25:30;9.13;;;6.07;;
16310;SDS011;8264;48.510;8.872;2022-07-24T08:27:57;6.87;;;5.67;;
16310;SDS011;8264;48.510;8.872;2022-07-24T08:30:25;6.40;;;5.30;;
16310;SDS011;8264;48.510;8.872;2022-07-24T08:32:51;6.07;;;5.57;;
16310;SDS011;8264;48.510;8.872;2022-07-24T08:35:18;6.20;;;5.70;;
16310;SDS011;8264;48.510;8.872;2022-07-24T08:37:45;6.53;;;5.80;;
16310;SDS011;8264;48.510;8.872;2022-07-24T08:40:12;6.60;;;5.90;;
16310;SDS011;8264;48.510;8.872;2022-07-24T08:42:39;5.70;;;5.20;;
16310;SDS011;8264;48.510;8.872;2022-07-24T08:45:06;6.17;;;5.03;;
16310;SDS011;8264;48.510;8.872;2022-07-24T08:47:34;5.77;;;5.07;;
16310;SDS011;8264;48.510;8.872;2022-07-24T08:50:03;8.93;;;5.37;;
16310;SDS011;8264;48.510;8.872;2022-07-24T08:52:31;6.17;;;5.60;;
16310;SDS011;8264;48.510;8.872;2022-07-24T08:54:57;5.23;;;4.73;;
16310;SDS011;8264;48.510;8.872;2022-07-24T08:57:24;7.83;;;5.53;;
16310;SDS011;8264;48.510;8.872;2022-07-24T08:59:50;6.13;;;5.53;;
16310;SDS011;8264;48.510;8.872;2022-07-24T09:02:17;6.20;;;5.27;;
16310;SDS011;8264;48.510;8.872;2022-07-24T09:04:46;5.43;;;4.83;;
16310;SDS011;8264;48.510;8.872;2022-07-24T09:07:13;6.70;;;4.90;;
16310;SDS011;8264;48.510;8.872;2022-07-24T09:09:44;4.93;;;4.53;;
16310;SDS011;8264;48.510;8.872;2022-07-24T09:12:12;5.77;;;5.17;;
16310;SDS011;8264;48.510;8.872;2022-07-24T09:14:40;7.93;;;5.60;;
16310;SDS011;8264;48.510;8.872;2022-07-24T09:17:09;5.30;;;4.80;;
16310;SDS011;8264;48.510;8.872;2022-07-24T09:19:48;6.50;;;5.00;;
16310;SDS011;8264;48.510;8.872;2022-07-24T09:22:16;6.23;;;5.17;;
16310;SDS011;8264;48.510;8.872;2022-07-24T09:24:58;6.30;;;5.30;;
16310;SDS011;8264;48.510;8.872;2022-07-24T09:27:29;6.13;;;5.53;;
16310;SDS011;8264;48.510;8.872;2022-07-24T09:29:56;6.83;;;5.83;;
16310;SDS011;8264;48.510;8.872;2022-07-24T09:32:23;5.67;;;5.17;;
16310;SDS011;8264;48.510;8.872;2022-07-24T09:34:52;6.40;;;5.80;;
16310;SDS011;8264;48.510;8.872;2022-07-24T09:37:19;8.20;;;5.93;;
16310;SDS011;8264;48.510;8.872;2022-07-24T09:39:47;6.27;;;5.17;;
16310;SDS011;8264;48.510;8.872;2022-07-24T09:42:13;6.27;;;5.43;;
16310;SDS011;8264;48.510;8.872;2022-07-24T09:44:40;8.17;;;5.60;;
16310;SDS011;8264;48.510;8.872;2022-07-24T09:47:08;6.13;;;5.40;;
16310;SDS011;8264;48.510;8.872;2022-07-24T09:49:36;6.00;;;5.40;;
16310;SDS011;8264;48.510;8.872;2022-07-24T09:52:07;7.57;;;5.40;;
16310;SDS011;8264;48.510;8.872;2022-07-24T09:54:36;6.53;;;5.37;;
16310;SDS011;8264;48.510;8.872;2022-07-24T09:57:14;8.53;;;5.83;;
16310;SDS011;8264;48.510;8.872;2022-07-24T09:59:45;5.90;;;5.30;;
16310;SDS011;8264;48.510;8.872;2022-07-24T10:02:13;6.40;;;5.77;;
16310;SDS011;8264;48.510;8.872;2022-07-24T10:04:41;8.00;;;5.77;;
16310;SDS011;8264;48.510;8.872;2022-07-24T10:07:11;5.80;;;5.30;;
16310;SDS011;8264;48.510;8.872;2022-07-24T10:09:40;7.43;;;5.57;;
16310;SDS011;8264;48.510;8.872;2022-07-24T10:12:10;6.70;;;5.40;;
16310;SDS011;8264;48.510;8.872;2022-07-24T10:14:38;5.77;;;5.27;;
16310;SDS011;8264;48.510;8.872;2022-07-24T10:17:06;5.40;;;4.90;;
16310;SDS011;8264;48.510;8.872;2022-07-24T10:19:36;5.57;;;5.07;;
16310;SDS011;8264;48.510;8.872;2022-07-24T10:22:07;5.90;;;5.33;;
16310;SDS011;8264;48.510;8.872;2022-07-24T10:24:54;7.47;;;5.27;;
16310;SDS011;8264;48.510;8.872;2022-07-24T10:27:24;6.10;;;5.50;;
16310;SDS011;8264;48.510;8.872;2022-07-24T10:29:52;6.80;;;5.03;;
16310;SDS011;8264;48.510;8.872;2022-07-24T10:32:20;5.20;;;4.67;;
16310;SDS011;8264;48.510;8.872;2022-07-24T10:34:47;5.47;;;4.73;;
16310;SDS011;8264;48.510;8.872;2022-07-24T10:37:20;6.13;;;4.77;;
16310;SDS011;8264;48.510;8.872;2022-07-24T10:39:53;5.40;;;4.90;;
16310;SDS011;8264;48.510;8.872;2022-07-24T10:42:24;7.23;;;5.17;;
16310;SDS011;8264;48.510;8.872;2022-07-24T10:47:42;6.20;;;4.70;;
16310;SDS011;8264;48.510;8.872;2022-07-24T10:50:09;5.40;;;4.90;;
16310;SDS011;8264;48.510;8.872;2022-07-24T10:52:36;7.07;;;4.80;;
16310;SDS011;8264;48.510;8.872;2022-07-24T10:55:22;5.50;;;4.93;;
16310;SDS011;8264;48.510;8.872;2022-07-24T10:57:56;5.77;;;5.17;;
16310;SDS011;8264;48.510;8.872;2022-07-24T11:00:24;5.27;;;4.77;;
16310;SDS011;8264;48.510;8.872;2022-07-24T11:02:59;4.80;;;4.40;;
16310;SDS011;8264;48.510;8.872;2022-07-24T11:05:29;8.73;;;4.13;;
16310;SDS011;8264;48.510;8.872;2022-07-24T11:11:05;7.53;;;4.32;;
16310;SDS011;8264;48.510;8.872;2022-07-24T11:13:43;4.95;;;4.55;;
16310;SDS011;8264;48.510;8.872;2022-07-24T11:16:18;6.35;;;4.47;;
16310;SDS011;8264;48.510;8.872;2022-07-24T11:21:52;4.20;;;3.85;;
16310;SDS011;8264;48.510;8.872;2022-07-24T11:24:32;6.60;;;4.10;;
16310;SDS011;8264;48.510;8.872;2022-07-24T11:27:03;6.25;;;4.32;;
16310;SDS011;8264;48.510;8.872;2022-07-24T11:29:32;8.00;;;4.80;;
16310;SDS011;8264;48.510;8.872;2022-07-24T11:32:00;4.53;;;4.13;;
16310;SDS011;8264;48.510;8.872;2022-07-24T11:34:30;6.32;;;5.43;;
16310;SDS011;8264;48.510;8.872;2022-07-24T11:36:58;5.13;;;4.63;;
16310;SDS011;8264;48.510;8.872;2022-07-24T11:39:26;4.33;;;3.93;;
16310;SDS011;8264;48.510;8.872;2022-07-24T11:41:54;4.73;;;4.33;;
16310;SDS011;8264;48.510;8.872;2022-07-24T11:44:24;4.83;;;4.33;;
16310;SDS011;8264;48.510;8.872;2022-07-24T11:46:53;5.77;;;4.50;;
16310;SDS011;8264;48.510;8.872;2022-07-24T11:49:22;6.28;;;4.88;;
16310;SDS011;8264;48.510;8.872;2022-07-24T11:51:50;4.97;;;4.53;;
16310;SDS011;8264;48.510;8.872;2022-07-24T11:54:20;6.07;;;4.63;;
16310;SDS011;8264;48.510;8.872;2022-07-24T11:56:48;5.30;;;4.80;;
16310;SDS011;8264;48.510;8.872;2022-07-24T11:59:23;5.20;;;4.70;;
16310;SDS011;8264;48.510;8.872;2022-07-24T12:01:50;5.50;;;5.00;;
16310;SDS011;8264;48.510;8.872;2022-07-24T12:04:22;5.00;;;4.60;;
16310;SDS011;8264;48.510;8.872;2022-07-24T12:06:48;4.80;;;4.40;;
16310;SDS011;8264;48.510;8.872;2022-07-24T12:09:15;4.70;;;4.30;;
16310;SDS011;8264;48.510;8.872;2022-07-24T12:11:41;7.33;;;4.43;;
16310;SDS011;8264;48.510;8.872;2022-07-24T12:14:12;4.90;;;4.50;;
16310;SDS011;8264;48.510;8.872;2022-07-24T12:16:42;5.13;;;4.63;;
16310;SDS011;8264;48.510;8.872;2022-07-24T12:19:13;4.80;;;4.40;;
16310;SDS011;8264;48.510;8.872;2022-07-24T12:21:40;5.17;;;4.67;;
16310;SDS011;8264;48.510;8.872;2022-07-24T12:24:07;5.03;;;4.60;;
16310;SDS011;8264;48.510;8.872;2022-07-24T12:26:34;6.37;;;4.90;;
16310;SDS011;8264;48.510;8.872;2022-07-24T12:29:09;5.27;;;4.83;;
16310;SDS011;8264;48.510;8.872;2022-07-24T12:31:36;5.47;;;4.97;;
16310;SDS011;8264;48.510;8.872;2022-07-24T12:34:04;5.00;;;4.60;;
16310;SDS011;8264;48.510;8.872;2022-07-24T12:36:30;6.07;;;4.70;;
16310;SDS011;8264;48.510;8.872;2022-07-24T12:38:57;5.33;;;4.47;;
16310;SDS011;8264;48.510;8.872;2022-07-24T12:41:25;5.23;;;4.73;;
16310;SDS011;8264;48.510;8.872;2022-07-24T12:43:53;5.33;;;4.70;;
16310;SDS011;8264;48.510;8.872;2022-07-24T12:46:22;6.70;;;4.70;;
16310;SDS011;8264;48.510;8.872;2022-07-24T12:48:56;5.90;;;4.23;;
16310;SDS011;8264;48.510;8.872;2022-07-24T12:51:26;5.00;;;4.50;;
16310;SDS011;8264;48.510;8.872;2022-07-24T12:53:53;6.10;;;4.90;;
16310;SDS011;8264;48.510;8.872;2022-07-24T12:56:21;5.20;;;4.70;;
16310;SDS011;8264;48.510;8.872;2022-07-24T12:58:49;5.10;;;4.60;;
16310;SDS011;8264;48.510;8.872;2022-07-24T13:01:23;4.70;;;4.30;;
16310;SDS011;8264;48.510;8.872;2022-07-24T13:03:51;4.77;;;4.27;;
16310;SDS011;8264;48.510;8.872;2022-07-24T13:06:30;5.40;;;4.30;;
16310;SDS011;8264;48.510;8.872;2022-07-24T13:08:58;5.63;;;5.13;;
16310;SDS011;8264;48.510;8.872;2022-07-24T13:11:24;4.63;;;4.32;;
16310;SDS011;8264;48.510;8.872;2022-07-24T13:13:51;7.43;;;4.70;;
16310;SDS011;8264;48.510;8.872;2022-07-24T13:16:17;5.70;;;5.03;;
16310;SDS011;8264;48.510;8.872;2022-07-24T13:18:44;5.78;;;4.50;;
16310;SDS011;8264;48.510;8.872;2022-07-24T13:21:10;5.20;;;4.70;;
16310;SDS011;8264;48.510;8.872;2022-07-24T13:23:38;5.13;;;4.63;;
16310;SDS011;8264;48.510;8.872;2022-07-24T13:26:05;5.40;;;4.90;;
16310;SDS011;8264;48.510;8.872;2022-07-24T13:28:31;7.95;;;4.90;;
16310;SDS011;8264;48.510;8.872;2022-07-24T13:30:58;5.20;;;4.70;;
16310;SDS011;8264;48.510;8.872;2022-07-24T13:33:24;6.03;;;4.83;;
16310;SDS011;8264;48.510;8.872;2022-07-24T13:35:51;5.47;;;4.67;;
16310;SDS011;8264;48.510;8.872;2022-07-24T13:38:17;5.17;;;4.63;;
16310;SDS011;8264;48.510;8.872;2022-07-24T13:40:45;5.17;;;4.67;;
16310;SDS011;8264;48.510;8.872;2022-07-24T13:43:12;6.57;;;4.97;;
16310;SDS011;8264;48.510;8.872;2022-07-24T13:45:38;5.40;;;4.60;;
16310;SDS011;8264;48.510;8.872;2022-07-24T13:48:05;5.70;;;4.90;;
16310;SDS011;8264;48.510;8.872;2022-07-24T13:50:31;5.07;;;4.63;;
16310;SDS011;8264;48.510;8.872;2022-07-24T13:52:58;5.10;;;4.70;;
16310;SDS011;8264;48.510;8.872;2022-07-24T13:55:24;6.60;;;4.77;;
16310;SDS011;8264;48.510;8.872;2022-07-24T13:57:52;4.87;;;4.47;;
16310;SDS011;8264;48.510;8.872;2022-07-24T14:00:19;5.20;;;4.80;;
16310;SDS011;8264;48.510;8.872;2022-07-24T14:02:46;5.63;;;5.13;;
16310;SDS011;8264;48.510;8.872;2022-07-24T14:05:12;5.10;;;4.70;;
16310;SDS011;8264;48.510;8.872;2022-07-24T14:07:39;5.10;;;4.60;;
16310;SDS011;8264;48.510;8.872;2022-07-24T14:10:06;4.85;;;4.40;;
16310;SDS011;8264;48.510;8.872;2022-07-24T14:12:32;5.30;;;4.53;;
16310;SDS011;8264;48.510;8.872;2022-07-24T14:15:00;4.80;;;4.40;;
16310;SDS011;8264;48.510;8.872;2022-07-24T14:17:27;5.38;;;4.97;;
16310;SDS011;8264;48.510;8.872;2022-07-24T14:19:53;5.15;;;4.43;;
16310;SDS011;8264;48.510;8.872;2022-07-24T14:22:20;5.57;;;5.03;;
16310;SDS011;8264;48.510;8.872;2022-07-24T14:24:46;6.82;;;5.18;;
16310;SDS011;8264;48.510;8.872;2022-07-24T14:27:13;4.83;;;4.40;;
16310;SDS011;8264;48.510;8.872;2022-07-24T14:29:39;6.87;;;5.00;;
16310;SDS011;8264;48.510;8.872;2022-07-24T14:32:07;5.10;;;4.70;;
16310;SDS011;8264;48.510;8.872;2022-07-24T14:34:34;5.00;;;4.50;;
16310;SDS011;8264;48.510;8.872;2022-07-24T14:37:00;5.73;;;4.60;;
16310;SDS011;8264;48.510;8.872;2022-07-24T14:39:27;4.60;;;4.20;;
16310;SDS011;8264;48.510;8.872;2022-07-24T14:41:55;5.23;;;4.73;;
16310;SDS011;8264;48.510;8.872;2022-07-24T14:44:22;5.13;;;4.70;;
16310;SDS011;8264;48.510;8.872;2022-07-24T14:46:48;5.80;;;4.90;;
16310;SDS011;8264;48.510;8.872;2022-07-24T14:49:16;5.78;;;4.45;;
16310;SDS011;8264;48.510;8.872;2022-07-24T14:51:43;5.10;;;4.60;;
16310;SDS011;8264;48.510;8.872;2022-07-24T14:54:09;5.60;;;4.80;;
16310;SDS011;8264;48.510;8.872;2022-07-24T14:56:36;5.15;;;4.65;;
16310;SDS011;8264;48.510;8.872;2022-07-24T14:59:03;4.97;;;4.57;;
16310;SDS011;8264;48.510;8.872;2022-07-24T15:01:30;5.20;;;4.70;;
16310;SDS011;8264;48.510;8.872;2022-07-24T15:03:57;6.17;;;5.00;;
16310;SDS011;8264;48.510;8.872;2022-07-24T15:06:27;4.97;;;4.57;;
16310;SDS011;8264;48.510;8.872;2022-07-24T15:08:54;4.80;;;4.40;;
16310;SDS011;8264;48.510;8.872;2022-07-24T15:11:21;9.03;;;5.30;;